Terminal Aerodrome Forecast
Issued by NWS Atlanta, GA

Home | Current Version | Previous Version | Text Only | Print | Product List | Glossary On
Versions: 1 2 3 4 5 6 7 8 9 10 11 12 13 14 15 16
147
FTUS42 KFFC 241346 AAA
TAFCSG
TAF AMD
KCSG 241346Z 2414/2512 12007KT P6SM BKN070
     FM242000 13008KT P6SM SCT050 SCT120
     FM250800 13006KT P6SM SCT012 BKN025=

USA.gov is the U.S. government's official web portal to all federal, state and local government web resources and services.